Time;durP1;ratioP1;P1;durP2;ratioP2;P2;SDS_P1;SDS_P2;PMS_P1;PMS_P2;Temp;Humidity;BMP_temperature;BMP_pressure;BME280_temperature;BME280_humidity;BME280_pressure;Samples;Min_cycle;Max_cycle;Signal;HPM_P1;HPM_P2
2022/01/29 00:00:36;;;;;;;3.70;2.05;;;;;;;15.40;37.29;94571.09;5046942;28;20040;-82
2022/01/29 00:03:02;;;;;;;4.32;1.48;;;;;;;15.37;37.30;94542.06;5029672;28;20053;-82
2022/01/29 00:05:27;;;;;;;2.92;1.40;;;;;;;15.35;37.09;94547.97;5029619;28;20044;-83
2022/01/29 00:07:53;;;;;;;3.42;1.65;;;;;;;15.36;37.32;94549.50;5030270;28;20034;-82
2022/01/29 00:10:19;;;;;;;3.40;1.55;;;;;;;15.34;37.18;94540.28;5028700;28;20041;-81
2022/01/29 00:12:44;;;;;;;3.35;1.50;;;;;;;15.38;37.12;94524.47;5013047;28;20037;-81
2022/01/29 00:15:09;;;;;;;3.05;1.60;;;;;;;15.36;37.45;94521.50;5046074;28;20030;-82
2022/01/29 00:17:35;;;;;;;2.38;1.45;;;;;;;15.37;37.29;94523.72;5057789;28;20606;-82
2022/01/29 00:20:00;;;;;;;3.67;1.55;;;;;;;15.31;37.30;94516.69;5033055;28;20511;-81
2022/01/29 00:22:26;;;;;;;1.88;1.20;;;;;;;15.43;37.28;94507.50;5050461;28;20095;-82
2022/01/29 00:24:51;;;;;;;3.60;1.40;;;;;;;15.40;37.37;94520.09;5016543;28;20557;-81
2022/01/29 00:27:19;;;;;;;2.55;1.38;;;;;;;15.37;36.87;94509.38;5032122;28;20044;-82
2022/01/29 00:29:44;;;;;;;2.97;1.40;;;;;;;15.33;37.34;94503.34;5033296;28;20033;-81
2022/01/29 00:32:10;;;;;;;2.78;1.45;;;;;;;15.34;37.48;94505.59;5048477;28;20119;-82
2022/01/29 00:34:35;;;;;;;3.92;1.60;;;;;;;15.31;37.23;94506.53;5032434;28;20136;-81
2022/01/29 00:37:01;;;;;;;2.38;1.35;;;;;;;15.33;37.30;94501.38;5032858;28;20045;-81
2022/01/29 00:39:26;;;;;;;4.60;1.65;;;;;;;15.35;37.25;94503.63;5031550;28;20495;-82
2022/01/29 00:41:52;;;;;;;3.72;1.63;;;;;;;15.36;37.46;94505.91;5015747;28;20041;-81
2022/01/29 00:44:17;;;;;;;2.85;1.83;;;;;;;15.38;37.36;94499.97;5048335;28;20610;-82
2022/01/29 00:46:42;;;;;;;2.95;1.33;;;;;;;15.33;37.34;94490.47;5049196;28;20037;-83
2022/01/29 00:49:09;;;;;;;3.28;1.40;;;;;;;15.41;37.24;94485.41;5031691;28;20033;-82
2022/01/29 00:51:35;;;;;;;1.83;1.20;;;;;;;15.41;37.10;94488.91;5049337;28;20033;-83
2022/01/29 00:54:00;;;;;;;4.22;1.48;;;;;;;15.35;37.46;94482.59;5049323;28;20277;-82
2022/01/29 00:56:26;;;;;;;2.63;1.60;;;;;;;15.38;37.31;94475.44;5031972;28;20045;-81
2022/01/29 00:58:51;;;;;;;1.95;1.50;;;;;;;15.35;37.25;94477.16;5031967;28;20424;-81
2022/01/29 01:01:17;;;;;;;3.65;1.35;;;;;;;15.35;37.46;94471.69;5047974;28;20060;-81
2022/01/29 01:03:42;;;;;;;1.80;1.20;;;;;;;15.35;37.31;94468.97;5032129;28;20527;-82
2022/01/29 01:06:07;;;;;;;3.72;1.70;;;;;;;15.37;37.39;94469.25;5015328;28;20037;-82
2022/01/29 01:08:33;;;;;;;5.25;1.80;;;;;;;15.39;37.46;94461.34;5048528;28;20036;-81
2022/01/29 01:10:58;;;;;;;2.08;1.15;;;;;;;15.33;37.34;94463.25;5031627;28;20450;-83
2022/01/29 01:13:24;;;;;;;3.22;1.70;;;;;;;15.38;37.37;94454.41;5014896;28;20060;-82
2022/01/29 01:15:49;;;;;;;2.65;1.40;;;;;;;15.39;37.39;94446.97;5031842;28;20037;-81
2022/01/29 01:18:15;;;;;;;2.38;1.40;;;;;;;15.43;37.28;94440.13;5048228;28;20033;-81
2022/01/29 01:20:40;;;;;;;1.75;1.25;;;;;;;15.38;37.20;94423.69;5031989;28;20067;-82
2022/01/29 01:23:06;;;;;;;3.22;1.50;;;;;;;15.41;37.12;94434.41;5014612;28;20040;-82
2022/01/29 01:25:31;;;;;;;3.25;1.50;;;;;;;15.33;37.32;94422.38;5031802;28;20145;-81
2022/01/29 01:27:56;;;;;;;3.60;1.50;;;;;;;15.35;37.33;94416.47;5032010;28;20048;-82
2022/01/29 01:30:22;;;;;;;2.13;1.30;;;;;;;15.35;37.24;94411.00;5048817;28;20048;-82
2022/01/29 01:32:48;;;;;;;3.47;1.50;;;;;;;15.42;37.39;94411.38;5031606;28;20083;-81
2022/01/29 01:35:31;;;;;;;3.13;1.67;;;;;;;15.42;37.42;94414.09;5047635;28;20049;-81
2022/01/29 01:38:04;;;;;;;1.83;1.40;;;;;;;15.36;37.33;94409.78;5033914;28;20064;-81
2022/01/29 01:40:30;;;;;;;3.38;1.38;;;;;;;15.34;37.08;94409.50;5047477;28;20292;-81
2022/01/29 01:43:00;;;;;;;4.05;1.80;;;;;;;15.41;37.46;94398.97;5048022;28;20319;-83
2022/01/29 01:45:26;;;;;;;3.30;1.40;;;;;;;15.35;37.49;94395.41;5047585;28;20045;-83
2022/01/29 01:47:52;;;;;;;2.28;1.42;;;;;;;15.33;37.43;94378.78;5011678;28;20045;-82
2022/01/29 01:50:17;;;;;;;2.20;1.45;;;;;;;15.42;37.18;94383.38;5030400;28;20044;-82
2022/01/29 01:52:42;;;;;;;2.67;1.50;;;;;;;15.32;37.44;94373.81;5031356;28;20033;-81
2022/01/29 01:55:08;;;;;;;2.75;1.75;;;;;;;15.32;37.39;94366.38;5045274;28;20068;-82
2022/01/29 01:57:34;;;;;;;3.20;1.50;;;;;;;15.40;37.19;94375.69;5031469;28;20087;-81
2022/01/29 01:59:59;;;;;;;2.05;1.15;;;;;;;15.39;37.26;94374.16;5030990;28;20029;-81
2022/01/29 02:02:24;;;;;;;2.22;1.60;;;;;;;15.40;37.38;94377.66;5030392;28;20060;-82
2022/01/29 02:04:50;;;;;;;2.17;1.23;;;;;;;15.38;37.45;94363.75;5047500;28;20528;-82
2022/01/29 02:07:17;;;;;;;3.10;1.42;;;;;;;15.35;37.59;94365.44;5029791;28;20376;-82
2022/01/29 02:09:42;;;;;;;2.38;1.30;;;;;;;15.32;37.43;94360.19;5050285;28;20071;-82
2022/01/29 02:12:09;;;;;;;2.88;1.38;;;;;;;15.34;37.43;94352.28;5056638;28;20051;-81
2022/01/29 02:14:35;;;;;;;1.92;1.45;;;;;;;15.34;37.45;94355.03;5054751;28;20043;-81
2022/01/29 02:17:01;;;;;;;2.58;1.40;;;;;;;15.40;37.33;94353.13;5048467;28;20029;-82
2022/01/29 02:19:26;;;;;;;3.25;1.63;;;;;;;15.42;37.22;94353.41;5030295;28;20033;-82
2022/01/29 02:21:53;;;;;;;2.97;1.45;;;;;;;15.37;37.61;94356.81;5047177;28;20033;-82
2022/01/29 02:24:18;;;;;;;2.20;1.45;;;;;;;15.42;37.37;94345.25;5046622;28;20036;-81
2022/01/29 02:26:45;;;;;;;4.13;1.50;;;;;;;15.36;37.28;94344.41;5030457;28;20519;-81
2022/01/29 02:29:10;;;;;;;5.45;1.92;;;;;;;15.41;37.29;94338.28;5047203;28;20052;-81
2022/01/29 02:31:45;;;;;;;2.53;1.40;;;;;;;15.37;37.26;94338.47;5030106;28;20049;-83
2022/01/29 02:34:10;;;;;;;3.03;1.63;;;;;;;15.41;37.37;94332.84;5046598;28;20364;-81
2022/01/29 02:36:35;;;;;;;5.50;1.60;;;;;;;15.37;37.31;94326.84;5047041;28;20029;-81
2022/01/29 02:39:01;;;;;;;1.80;1.27;;;;;;;15.37;37.39;94332.28;5013944;28;20033;-81
2022/01/29 02:41:28;;;;;;;3.83;1.67;;;;;;;15.35;37.49;94324.59;5029298;28;20029;-82
2022/01/29 02:43:56;;;;;;;1.88;1.10;;;;;;;15.33;37.34;94327.03;5046789;28;20043;-83
2022/01/29 02:46:30;;;;;;;2.50;1.67;;;;;;;15.41;37.75;94316.50;5046797;28;20504;-81
2022/01/29 02:48:58;;;;;;;2.20;1.35;;;;;;;15.36;37.57;94317.91;5047971;28;20029;-81
2022/01/29 02:51:24;;;;;;;4.50;2.05;;;;;;;15.37;37.27;94313.22;5045881;28;20043;-82
2022/01/29 02:53:49;;;;;;;1.67;1.38;;;;;;;15.44;37.31;94316.31;5030618;28;20033;-82
2022/01/29 02:56:15;;;;;;;1.98;1.38;;;;;;;15.41;37.39;94311.03;5029325;28;20040;-81
2022/01/29 02:58:40;;;;;;;2.33;1.55;;;;;;;15.36;37.45;94309.00;5013988;28;20037;-81
2022/01/29 03:01:08;;;;;;;3.03;1.77;;;;;;;15.32;37.84;94306.44;5028914;28;20123;-82
2022/01/29 03:03:33;;;;;;;2.78;1.60;;;;;;;15.31;37.75;94313.13;5030462;28;20518;-82
2022/01/29 03:06:01;;;;;;;1.88;1.48;;;;;;;15.34;37.52;94304.00;5046416;28;20029;-82
2022/01/29 03:08:27;;;;;;;5.30;1.63;;;;;;;15.30;37.41;94306.16;5029700;28;20029;-81
2022/01/29 03:10:52;;;;;;;1.98;1.40;;;;;;;15.34;37.50;94295.09;5045740;28;20037;-81
2022/01/29 03:13:17;;;;;;;3.33;1.85;;;;;;;15.36;37.29;94296.13;5047283;28;20378;-83
2022/01/29 03:15:43;;;;;;;7.32;1.48;;;;;;;15.37;37.47;94294.88;5046413;28;20029;-81
2022/01/29 03:18:08;;;;;;;7.05;2.58;;;;;;;15.34;37.46;94301.28;5029527;28;20037;-81
2022/01/29 03:20:34;;;;;;;3.13;1.90;;;;;;;15.36;37.41;94292.66;5029959;28;20115;-82
2022/01/29 03:22:59;;;;;;;3.03;1.38;;;;;;;15.36;37.19;94296.13;5029621;28;20037;-82
2022/01/29 03:25:25;;;;;;;3.70;1.92;;;;;;;15.36;37.28;94300.81;5029176;28;20037;-82
2022/01/29 03:27:50;;;;;;;1.90;1.63;;;;;;;15.31;37.48;94307.66;5029946;28;20049;-81
2022/01/29 03:30:15;;;;;;;2.80;1.70;;;;;;;15.38;37.34;94298.34;5029347;28;20048;-83
2022/01/29 03:32:41;;;;;;;3.42;1.40;;;;;;;15.29;37.72;94306.63;5045986;28;20442;-82
2022/01/29 03:35:07;;;;;;;2.08;1.67;;;;;;;15.32;37.76;94305.69;5029611;28;20044;-82
2022/01/29 03:37:32;;;;;;;3.65;1.60;;;;;;;15.32;37.44;94297.53;5029921;28;20041;-81
2022/01/29 03:40:01;;;;;;;2.70;1.75;;;;;;;15.33;37.59;94291.59;5013297;28;20177;-81
2022/01/29 03:42:29;;;;;;;2.33;1.85;;;;;;;15.37;37.50;94299.59;5029999;28;20041;-82
2022/01/29 03:44:55;;;;;;;3.35;1.85;;;;;;;15.31;37.74;94290.56;5047815;28;20075;-82
2022/01/29 03:47:20;;;;;;;2.30;1.60;;;;;;;15.31;37.64;94290.56;5028750;28;20037;-81
2022/01/29 03:49:46;;;;;;;3.63;1.73;;;;;;;15.33;37.53;94288.88;5046220;28;20029;-81
2022/01/29 03:52:11;;;;;;;2.30;1.70;;;;;;;15.36;37.46;94301.56;5045602;28;20044;-82
2022/01/29 03:54:37;;;;;;;3.05;2.00;;;;;;;15.38;37.65;94292.91;5013149;28;20488;-82
2022/01/29 03:57:03;;;;;;;1.88;1.63;;;;;;;15.35;37.66;94294.63;5028838;28;20431;-81
2022/01/29 03:59:28;;;;;;;5.18;1.85;;;;;;;15.30;37.57;94284.38;5046320;28;20056;-82
2022/01/29 04:01:53;;;;;;;3.53;1.80;;;;;;;15.40;37.43;94277.59;5013150;28;20041;-82
2022/01/29 04:04:19;;;;;;;2.92;1.60;;;;;;;15.42;37.48;94282.56;5028948;28;20041;-81
2022/01/29 04:06:44;;;;;;;3.40;1.80;;;;;;;15.42;37.42;94274.41;5029537;28;20388;-82
2022/01/29 04:09:11;;;;;;;2.67;1.92;;;;;;;15.36;37.56;94281.75;5046539;28;20053;-82
2022/01/29 04:11:38;;;;;;;2.40;2.10;;;;;;;15.34;37.38;94274.03;5045852;28;20033;-81
2022/01/29 04:14:13;;;;;;;2.20;1.80;;;;;;;15.38;37.18;94273.84;5029277;28;20029;-82
2022/01/29 04:16:41;;;;;;;2.50;1.80;;;;;;;15.36;37.59;94268.88;5046117;28;20128;-82
2022/01/29 04:19:06;;;;;;;2.35;1.65;;;;;;;15.34;37.58;94268.59;5049154;28;20033;-81
2022/01/29 04:21:32;;;;;;;3.10;1.70;;;;;;;15.37;36.94;94264.19;5032959;28;20041;-82
2022/01/29 04:23:57;;;;;;;2.85;1.88;;;;;;;15.36;37.44;94257.97;5049473;28;20037;-81
2022/01/29 04:26:23;;;;;;;2.00;1.63;;;;;;;15.36;37.44;94249.06;5049089;28;20037;-81
2022/01/29 04:28:49;;;;;;;3.67;1.98;;;;;;;15.40;37.60;94255.03;5049608;28;20403;-81
2022/01/29 04:31:18;;;;;;;3.50;2.10;;;;;;;15.35;37.39;94256.47;5032259;28;20082;-82
2022/01/29 04:33:44;;;;;;;2.00;1.67;;;;;;;15.32;37.67;94257.41;5049175;28;20040;-82
2022/01/29 04:36:09;;;;;;;2.88;2.00;;;;;;;15.33;37.54;94253.47;5048665;28;20492;-81
2022/01/29 04:38:35;;;;;;;3.35;1.98;;;;;;;15.37;37.63;94258.75;5016169;28;20053;-81
2022/01/29 04:41:03;;;;;;;3.10;2.03;;;;;;;15.37;37.60;94251.28;5032976;28;20037;-81
2022/01/29 04:43:33;;;;;;;3.95;2.17;;;;;;;15.36;37.59;94247.09;5032703;28;20179;-82
2022/01/29 04:45:59;;;;;;;2.15;1.80;;;;;;;15.40;37.59;94244.16;5016825;28;20496;-81
2022/01/29 04:48:24;;;;;;;2.55;1.92;;;;;;;15.41;37.51;94245.66;5031900;28;20044;-82
2022/01/29 04:50:50;;;;;;;2.55;2.00;;;;;;;15.36;37.32;94238.91;5032088;28;20044;-81
2022/01/29 04:53:15;;;;;;;2.50;2.20;;;;;;;15.35;37.52;94240.13;5031568;28;20480;-82
2022/01/29 04:55:41;;;;;;;3.83;1.83;;;;;;;15.37;37.23;94228.78;5049089;28;20029;-81
2022/01/29 04:58:06;;;;;;;2.40;1.98;;;;;;;15.33;37.73;94231.69;5048423;28;20102;-82
2022/01/29 05:00:32;;;;;;;2.95;2.03;;;;;;;15.30;37.51;94229.91;5032405;28;20408;-81
2022/01/29 05:03:08;;;;;;;2.47;1.90;;;;;;;15.33;37.90;94215.34;5031960;28;20061;-82
2022/01/29 05:05:34;;;;;;;3.13;2.20;;;;;;;15.32;37.56;94221.25;5032472;28;20047;-82
2022/01/29 05:07:59;;;;;;;2.70;2.13;;;;;;;15.37;37.65;94220.59;5048861;28;20483;-81
2022/01/29 05:10:25;;;;;;;2.28;1.90;;;;;;;15.34;37.72;94219.56;5048640;28;20033;-82
2022/01/29 05:12:55;;;;;;;3.15;1.92;;;;;;;15.35;37.45;94226.50;5015536;28;20431;-83
2022/01/29 05:29:01;;;;;;;58.17;7.00;;;;;;;15.34;37.58;94230.47;5034668;28;20052;-81
2022/01/29 05:31:27;;;;;;;45.33;5.93;;;;;;;15.31;38.05;94223.22;5047307;28;20117;-82
2022/01/29 05:33:52;;;;;;;26.80;5.30;;;;;;;15.37;37.57;94224.03;5031619;28;20045;-82
2022/01/29 05:36:17;;;;;;;29.02;4.97;;;;;;;15.35;37.64;94215.63;5014718;28;20241;-83
2022/01/29 05:38:43;;;;;;;64.43;6.93;;;;;;;15.35;37.67;94217.59;5031424;28;20043;-81
2022/01/29 05:41:09;;;;;;;46.72;6.05;;;;;;;15.36;37.65;94219.84;5047943;28;20040;-82
2022/01/29 05:43:34;;;;;;;33.22;5.20;;;;;;;15.35;37.62;94214.88;5048320;28;20040;-82
2022/01/29 05:45:59;;;;;;;102.00;11.63;;;;;;;15.40;37.65;94222.34;5048350;28;20049;-81
2022/01/29 05:48:25;;;;;;;79.07;9.63;;;;;;;15.46;37.29;94214.28;5027473;28;20041;-82
2022/01/29 05:50:50;;;;;;;38.65;5.88;;;;;;;15.40;37.72;94209.47;5046184;28;20071;-83
2022/01/29 05:53:16;;;;;;;56.20;6.68;;;;;;;15.41;37.58;94221.88;5045747;28;20037;-82
2022/01/29 05:55:41;;;;;;;58.17;7.97;;;;;;;15.41;37.70;94215.69;5044191;28;20032;-82
2022/01/29 05:58:06;;;;;;;54.75;7.20;;;;;;;15.42;37.71;94214.47;5032673;28;20033;-83
2022/01/29 06:00:32;;;;;;;52.80;7.30;;;;;;;15.40;37.51;94206.00;5066292;28;20051;-83
2022/01/29 06:03:06;;;;;;;32.63;6.07;;;;;;;15.36;37.46;94208.94;5032898;28;20435;-82
2022/01/29 06:05:32;;;;;;;32.70;5.43;;;;;;;15.33;37.45;94201.72;5032675;28;20064;-82
2022/01/29 06:07:57;;;;;;;30.40;5.63;;;;;;;15.38;37.50;94205.72;5023280;28;20044;-82
2022/01/29 06:10:24;;;;;;;24.83;5.38;;;;;;;15.38;37.45;94200.28;4996956;28;20048;-82
2022/01/29 06:13:01;;;;;;;32.65;5.68;;;;;;;15.35;37.59;94191.09;5020581;28;20123;-81
2022/01/29 06:15:26;;;;;;;27.48;5.22;;;;;;;15.37;37.50;94187.91;5027310;28;20056;-81
2022/01/29 06:17:52;;;;;;;28.83;5.50;;;;;;;15.37;37.58;94185.91;5050085;28;20393;-81
2022/01/29 06:20:17;;;;;;;19.15;4.38;;;;;;;15.43;37.49;94194.91;5045363;28;20135;-81
2022/01/29 06:22:43;;;;;;;30.13;5.00;;;;;;;15.39;37.56;94194.34;5027458;28;20083;-82
2022/01/29 06:25:08;;;;;;;35.33;4.55;;;;;;;15.46;37.46;94189.75;5046928;28;20040;-82
2022/01/29 06:27:34;;;;;;;25.80;4.95;;;;;;;15.46;37.41;94187.78;5030456;28;20040;-82
2022/01/29 06:29:59;;;;;;;26.80;4.72;;;;;;;15.42;37.49;94187.97;5047022;28;20041;-81
2022/01/29 06:32:25;;;;;;;24.90;4.72;;;;;;;15.42;37.61;94185.25;5046229;28;20041;-83
2022/01/29 06:34:50;;;;;;;22.92;4.88;;;;;;;15.42;37.55;94196.16;5047157;28;20053;-82
2022/01/29 06:37:15;;;;;;;25.98;5.13;;;;;;;15.44;37.69;94192.94;5046597;28;20401;-82
2022/01/29 06:39:41;;;;;;;20.77;4.57;;;;;;;15.37;37.58;94199.53;5029820;28;20044;-82
2022/01/29 06:42:06;;;;;;;27.63;5.63;;;;;;;15.44;37.47;94209.28;5046781;28;20403;-81
2022/01/29 06:44:32;;;;;;;16.70;4.20;;;;;;;15.48;37.25;94200.94;5030417;28;20040;-81
2022/01/29 06:46:57;;;;;;;16.27;4.20;;;;;;;15.44;37.82;94204.59;5030089;28;20037;-82
2022/01/29 06:49:23;;;;;;;15.07;4.32;;;;;;;15.47;37.42;94200.19;5029240;28;20029;-83
2022/01/29 06:51:48;;;;;;;13.43;3.95;;;;;;;15.44;37.41;94201.13;5046818;28;20037;-82
2022/01/29 06:54:14;;;;;;;12.80;4.68;;;;;;;15.46;37.42;94198.69;5046201;28;20037;-82
2022/01/29 06:56:39;;;;;;;16.73;4.40;;;;;;;15.48;37.58;94195.47;5030348;28;20025;-82
2022/01/29 06:59:04;;;;;;;19.45;3.95;;;;;;;15.46;37.39;94179.59;5046279;28;20045;-82
2022/01/29 07:01:30;;;;;;;22.90;4.50;;;;;;;15.47;37.34;94183.84;5046652;28;20454;-82
2022/01/29 07:03:55;;;;;;;21.05;4.32;;;;;;;15.42;37.37;94184.50;5046723;28;20041;-83
2022/01/29 07:06:21;;;;;;;22.95;4.97;;;;;;;15.39;37.78;94175.28;5029588;28;20407;-82
2022/01/29 07:08:46;;;;;;;21.15;4.38;;;;;;;15.47;37.61;94191.25;5046322;28;20487;-82
2022/01/29 07:11:12;;;;;;;21.83;5.28;;;;;;;15.46;37.44;94185.06;5046500;28;20029;-81
2022/01/29 07:13:37;;;;;;;21.95;5.35;;;;;;;15.40;37.24;94184.22;5045902;28;20511;-81
2022/01/29 07:16:03;;;;;;;10.20;5.82;;;;;;;15.36;37.14;94176.25;5045822;28;20056;-81
2022/01/29 07:18:28;;;;;;;14.80;4.70;;;;;;;15.35;37.37;94193.06;5046567;28;20060;-82
2022/01/29 07:20:53;;;;;;;15.73;4.43;;;;;;;15.34;37.53;94191.56;5030409;28;20415;-81
2022/01/29 07:23:19;;;;;;;13.38;4.35;;;;;;;15.35;37.38;94188.38;5029146;28;20049;-82
2022/01/29 07:25:44;;;;;;;13.95;5.28;;;;;;;15.26;37.44;94193.91;5045993;28;20094;-81
2022/01/29 07:28:10;;;;;;;12.52;4.55;;;;;;;15.30;37.25;94180.88;5046137;28;20853;-81
2022/01/29 07:30:35;;;;;;;24.08;4.78;;;;;;;15.27;37.70;94181.03;5046035;28;20041;-82
2022/01/29 07:33:01;;;;;;;18.08;5.22;;;;;;;15.29;37.59;94167.72;5029647;28;20036;-82
2022/01/29 07:35:26;;;;;;;17.02;5.03;;;;;;;15.30;37.49;94166.50;5029014;28;20063;-81
2022/01/29 07:37:51;;;;;;;10.38;4.53;;;;;;;15.29;37.57;94173.91;5013325;28;20769;-81
2022/01/29 07:40:17;;;;;;;13.02;4.35;;;;;;;15.32;37.40;94159.34;5028916;28;20522;-81
2022/01/29 07:42:42;;;;;;;8.68;3.97;;;;;;;15.34;37.50;94153.44;5046457;28;20296;-81
2022/01/29 07:45:08;;;;;;;14.68;4.20;;;;;;;15.37;37.27;94158.66;5045496;28;20462;-82
2022/01/29 07:47:33;;;;;;;7.47;3.75;;;;;;;15.43;37.24;94147.84;5013110;28;20472;-82
2022/01/29 07:49:59;;;;;;;16.67;4.55;;;;;;;15.33;37.67;94149.97;5026152;28;20045;-81
2022/01/29 07:52:24;;;;;;;12.13;5.07;;;;;;;15.34;37.49;94153.44;5043513;28;20136;-82
2022/01/29 07:54:50;;;;;;;14.45;5.05;;;;;;;15.34;36.99;94150.72;5030343;28;20041;-81
2022/01/29 07:57:15;;;;;;;11.82;4.60;;;;;;;15.36;37.42;94146.28;5029132;28;20120;-82
2022/01/29 07:59:42;;;;;;;18.08;4.38;;;;;;;15.34;37.71;94143.28;5045702;28;20042;-82
2022/01/29 08:02:07;;;;;;;8.73;4.20;;;;;;;15.37;37.34;94153.22;5029767;28;20029;-82
2022/01/29 08:04:33;;;;;;;14.63;4.18;;;;;;;15.36;37.51;94159.16;5013944;28;20070;-82
2022/01/29 08:06:58;;;;;;;11.38;3.83;;;;;;;15.34;38.00;94162.34;5029681;28;20430;-82
2022/01/29 08:09:24;;;;;;;11.25;4.40;;;;;;;15.34;37.60;94159.63;5030294;28;20111;-83
2022/01/29 08:11:49;;;;;;;10.02;4.60;;;;;;;15.36;37.71;94151.75;5046075;28;20044;-81
2022/01/29 08:14:14;;;;;;;15.13;4.25;;;;;;;15.38;37.33;94132.91;5029238;28;20037;-83
2022/01/29 08:16:40;;;;;;;12.80;4.72;;;;;;;15.43;37.42;94137.72;5050762;28;20041;-82
2022/01/29 08:19:05;;;;;;;9.68;4.10;;;;;;;15.38;37.80;94143.81;5050798;28;20552;-82
2022/01/29 08:21:31;;;;;;;10.18;3.60;;;;;;;15.35;37.53;94131.16;5049298;28;20041;-81
2022/01/29 08:23:56;;;;;;;8.85;3.90;;;;;;;15.34;37.62;94131.63;5049767;28;20491;-82
2022/01/29 08:26:21;;;;;;;9.85;3.78;;;;;;;15.37;37.67;94125.97;5048694;28;20071;-82
2022/01/29 08:28:47;;;;;;;9.73;4.18;;;;;;;15.36;37.42;94121.78;5049308;28;20060;-82
2022/01/29 08:31:12;;;;;;;7.18;3.25;;;;;;;15.39;37.36;94131.69;5031900;28;20041;-82
2022/01/29 08:33:38;;;;;;;10.27;3.45;;;;;;;15.38;37.32;94124.00;5049125;28;20052;-82
2022/01/29 08:36:04;;;;;;;7.35;3.85;;;;;;;15.37;37.37;94133.41;5014417;28;20033;-81
2022/01/29 08:38:30;;;;;;;12.38;4.15;;;;;;;15.34;37.72;94137.09;5032445;28;20029;-82
2022/01/29 08:40:55;;;;;;;5.90;3.55;;;;;;;15.36;37.60;94127.22;5048903;28;20034;-82
2022/01/29 08:43:22;;;;;;;7.57;3.83;;;;;;;15.36;37.39;94126.47;5032044;28;20078;-81
2022/01/29 08:45:49;;;;;;;8.45;3.88;;;;;;;15.40;38.06;94129.72;5049312;28;20204;-82
2022/01/29 08:48:14;;;;;;;5.78;3.63;;;;;;;15.41;37.60;94125.78;5048824;28;20072;-81
2022/01/29 08:50:40;;;;;;;6.60;3.78;;;;;;;15.40;37.31;94129.72;5052688;28;20517;-82
2022/01/29 08:53:06;;;;;;;6.95;3.55;;;;;;;15.42;37.44;94114.41;5048392;28;20052;-82
2022/01/29 08:55:36;;;;;;;6.07;3.22;;;;;;;15.40;37.51;94102.47;5048915;28;20506;-81
2022/01/29 08:58:03;;;;;;;8.33;3.27;;;;;;;15.42;37.55;94094.59;5050171;28;20495;-81
2022/01/29 09:00:29;;;;;;;8.90;3.13;;;;;;;15.35;37.82;94098.47;5048305;28;20262;-82
2022/01/29 09:02:54;;;;;;;7.63;3.58;;;;;;;15.42;37.46;94094.59;5048951;28;20511;-83
2022/01/29 09:05:19;;;;;;;6.03;3.75;;;;;;;15.40;37.64;94095.06;5049664;28;20487;-81
2022/01/29 09:07:46;;;;;;;6.35;3.78;;;;;;;15.36;37.59;94097.25;5031817;28;20037;-81
2022/01/29 09:10:12;;;;;;;6.95;3.83;;;;;;;15.43;37.77;94094.13;5048075;28;20049;-81
2022/01/29 09:12:37;;;;;;;10.95;3.97;;;;;;;15.43;37.44;94093.38;5048281;28;20039;-82
2022/01/29 09:15:03;;;;;;;9.52;3.70;;;;;;;15.44;37.56;94101.06;5048049;28;20045;-82
2022/01/29 09:17:29;;;;;;;14.40;4.55;;;;;;;15.46;37.62;94095.16;5015026;28;20029;-83
2022/01/29 09:19:54;;;;;;;11.57;4.35;;;;;;;15.46;37.67;94102.56;5048628;28;20041;-82
2022/01/29 09:22:19;;;;;;;5.32;2.95;;;;;;;15.51;37.25;94099.94;5047565;28;20388;-81
2022/01/29 09:24:45;;;;;;;6.28;3.75;;;;;;;15.48;37.25;94105.56;5032203;28;20083;-82
2022/01/29 09:27:10;;;;;;;10.00;5.00;;;;;;;15.41;37.59;94093.84;5047579;28;20040;-81
2022/01/29 09:29:36;;;;;;;8.27;4.03;;;;;;;15.43;37.32;94094.13;5031928;28;20510;-81
2022/01/29 09:32:02;;;;;;;8.60;3.70;;;;;;;15.48;37.66;94097.41;5048384;28;20037;-82
2022/01/29 09:34:28;;;;;;;10.05;4.18;;;;;;;15.48;37.29;94095.41;5031286;28;20026;-82
2022/01/29 09:36:53;;;;;;;9.90;4.18;;;;;;;15.48;37.36;94100.13;5048078;28;20449;-82
2022/01/29 09:39:18;;;;;;;11.38;4.35;;;;;;;15.48;37.32;94106.31;5014525;28;20047;-81
2022/01/29 09:41:44;;;;;;;7.28;3.67;;;;;;;15.51;37.31;94101.91;5031663;28;20029;-81
2022/01/29 09:44:10;;;;;;;9.45;4.03;;;;;;;15.48;37.22;94108.28;5031190;28;20032;-82
2022/01/29 09:46:35;;;;;;;12.00;4.18;;;;;;;15.43;37.48;94102.28;5015242;28;20059;-82
2022/01/29 09:49:00;;;;;;;9.45;3.97;;;;;;;15.46;37.43;94100.59;5031022;28;20033;-82
2022/01/29 09:51:26;;;;;;;9.63;3.65;;;;;;;15.48;37.65;94102.84;5030144;28;20037;-82
2022/01/29 09:53:53;;;;;;;9.23;3.78;;;;;;;15.45;37.73;94093.66;5031681;28;20049;-81
2022/01/29 09:56:18;;;;;;;11.60;3.88;;;;;;;15.46;37.43;94084.25;5030568;28;20071;-82
2022/01/29 09:58:44;;;;;;;8.20;3.90;;;;;;;15.44;37.46;94092.91;5031040;28;20400;-81
2022/01/29 10:01:09;;;;;;;10.43;3.90;;;;;;;15.42;37.82;94097.31;5030297;28;20043;-81
2022/01/29 10:03:36;;;;;;;7.57;4.38;;;;;;;15.44;37.52;94081.25;5031330;28;20116;-81
2022/01/29 10:06:02;;;;;;;7.10;3.65;;;;;;;15.52;37.52;94073.44;5031024;28;20731;-81
2022/01/29 10:08:28;;;;;;;9.82;3.65;;;;;;;15.44;37.60;94076.53;5017382;28;20044;-82
2022/01/29 10:10:57;;;;;;;6.88;3.90;;;;;;;15.41;37.62;94069.31;5059267;28;20117;-81
2022/01/29 10:13:23;;;;;;;9.75;3.80;;;;;;;15.47;37.55;94066.69;5049823;28;20112;-81
2022/01/29 10:15:49;;;;;;;9.70;4.55;;;;;;;15.48;37.54;94059.25;5051580;28;20037;-81
2022/01/29 10:18:24;;;;;;;7.35;3.78;;;;;;;15.51;37.38;94053.59;5046638;28;20040;-81
2022/01/29 10:20:50;;;;;;;8.60;3.85;;;;;;;15.47;37.50;94047.59;5048443;28;20388;-81
2022/01/29 10:23:15;;;;;;;8.23;4.00;;;;;;;15.51;37.59;94045.44;5046649;28;20044;-82
2022/01/29 10:25:43;;;;;;;8.38;3.85;;;;;;;15.46;37.37;94034.44;5030504;28;20048;-82
2022/01/29 10:28:16;;;;;;;7.68;3.60;;;;;;;15.47;37.80;94041.41;5030323;28;20033;-81
2022/01/29 10:30:51;;;;;;;8.30;3.53;;;;;;;15.43;37.58;94041.59;5047008;28;20037;-82
2022/01/29 10:33:22;;;;;;;7.93;3.80;;;;;;;15.50;37.64;94035.75;5047450;28;20044;-82
2022/01/29 10:35:50;;;;;;;7.32;3.83;;;;;;;15.51;37.53;94044.69;5048576;28;20059;-81
2022/01/29 10:38:20;;;;;;;6.47;3.40;;;;;;;15.43;37.75;94036.91;5047548;28;20474;-82
2022/01/29 10:40:46;;;;;;;9.38;3.92;;;;;;;15.46;37.57;94035.19;5013874;28;20552;-83
2022/01/29 10:43:12;;;;;;;8.15;3.88;;;;;;;15.46;37.73;94040.66;5029938;28;20037;-81
2022/01/29 10:45:37;;;;;;;4.82;3.45;;;;;;;15.49;37.36;94041.69;5013818;28;20044;-82
2022/01/29 10:48:04;;;;;;;7.75;3.65;;;;;;;15.48;37.62;94042.91;5046329;28;20348;-82
2022/01/29 10:50:31;;;;;;;7.47;3.63;;;;;;;15.48;37.83;94035.47;5046443;28;20059;-81
2022/01/29 10:52:56;;;;;;;4.70;3.22;;;;;;;15.49;37.63;94039.69;5030431;28;20128;-83
2022/01/29 10:55:21;;;;;;;7.65;3.50;;;;;;;15.49;37.75;94025.34;5008021;28;20056;-82
2022/01/29 10:57:47;;;;;;;7.38;3.58;;;;;;;15.46;37.70;94013.41;5008870;28;20400;-82
2022/01/29 11:00:23;;;;;;;6.82;3.35;;;;;;;15.40;37.83;94016.06;4992069;28;20099;-82
2022/01/29 11:02:49;;;;;;;7.93;3.40;;;;;;;15.40;37.93;94018.03;5025256;28;20056;-82
2022/01/29 11:05:15;;;;;;;5.97;3.38;;;;;;;15.42;37.70;93999.97;5007128;28;20034;-81
2022/01/29 11:07:42;;;;;;;5.95;3.30;;;;;;;15.50;37.74;93994.13;5025580;28;20060;-82
2022/01/29 11:10:08;;;;;;;7.47;3.67;;;;;;;15.47;37.64;93986.91;5007838;28;20095;-82
2022/01/29 11:12:36;;;;;;;8.75;3.50;;;;;;;15.44;37.58;93977.72;5024803;28;20049;-81
2022/01/29 11:15:02;;;;;;;6.13;3.10;;;;;;;15.44;37.62;93983.16;4992390;28;20053;-81
2022/01/29 11:17:29;;;;;;;6.22;3.97;;;;;;;15.51;37.58;93977.31;5044554;28;20041;-82
2022/01/29 11:19:54;;;;;;;6.38;3.80;;;;;;;15.58;37.46;93968.75;5028036;28;20504;-81
2022/01/29 11:22:24;;;;;;;7.22;3.95;;;;;;;15.52;37.46;93959.75;5062967;28;20051;-82
2022/01/29 11:24:56;;;;;;;6.68;3.53;;;;;;;15.49;37.66;93966.13;5048608;28;20036;-83
2022/01/29 11:27:24;;;;;;;7.05;3.33;;;;;;;15.52;37.41;93959.00;5050740;28;20105;-82
2022/01/29 11:30:00;;;;;;;5.93;3.10;;;;;;;15.44;37.62;93964.09;5070632;28;20063;-82
2022/01/29 11:32:32;;;;;;;5.28;3.40;;;;;;;15.46;37.55;93960.88;5053410;28;20125;-82
2022/01/29 11:35:26;;;;;;;4.68;3.20;;;;;;;15.49;37.66;93963.41;5070205;28;20149;-82
2022/01/29 11:38:07;;;;;;;7.22;3.28;;;;;;;15.53;37.50;93949.59;5072121;28;20041;-82
2022/01/29 11:40:34;;;;;;;7.07;2.90;;;;;;;15.41;37.86;93952.16;5070277;28;20090;-82